首页
METAR-TAF:

METAR-TAF

机场 :

Oakland County International Airport

Pontiac, 密歇根州, 美国

纬度: 42-39-47N, 经度: 083-24-36W, 海拔: 299米

当前天气观测

该预报发布于40分钟前的12:53 UTC
风速3节,风向东转东南
温度 18°C
湿度 73%
气压 1015 hPa
能見度: 16.1公里
少量云层高于2400英尺
多云层高于4000英尺
阴天层高于5500英尺

METAR: KPTK 181253Z 12003KT 10SM FEW024 BKN040 OVC055 18/13 A2997 RMK AO2 SLP146 T01780133

时间: 09:33 (13:33 UTC)

预报

该预报发布于2小时和10分钟前的11:23 UTC
预报有效从18日的 12点(UTC)到 19日的 12点(UTC)
风速3节,风向多变
能見度: 10公里
多云层高于3500英尺
阴天层高于20000英尺
短暂存在
从 18日的 12点(UTC)到 18日的 14点(UTC)
阴天层高于2500英尺
从 18日的 2000点(UTC)
风速5节,风向
能見度: 10公里
散云层高于5000英尺
从 19日的 0800点(UTC)
风速5节,风向西南
能見度: 10公里
散云层高于12000英尺

TAF: KPTK 181123Z 1812/1912 VRB03KT P6SM BKN035 OVC200 TEMPO 1812/1814 OVC025 FM182000 18005KT P6SM SCT050 FM190800 22005KT P6SM SCT120

超过4000个机场的气象观测和天气预报(METAR&TAF报告)。

可查询的气象台以黄色和红色小点在地图上表示。

将鼠标移到小点上方,可查看气象台名称。

然后点击查看天气观测和预报。

如需切换地图:点击带黑十字的绿色按钮放大地图;点击带横线的绿色按钮缩小地图;或者点击绿色箭头查看邻近地区的地图。


METAR-TAF: